createdAt,value
2022-12-19T00:01:38.446Z,95.40
2022-12-19T00:04:08.990Z,100.55
2022-12-19T00:06:38.047Z,103.97
2022-12-19T00:09:09.485Z,104.60
2022-12-19T00:11:36.291Z,100.97
2022-12-19T00:14:03.192Z,99.40
2022-12-19T00:16:30.730Z,100.25
2022-12-19T00:19:00.430Z,99.38
2022-12-19T00:21:29.505Z,99.10
2022-12-19T00:23:57.225Z,94.45
2022-12-19T00:26:35.514Z,89.03
2022-12-19T00:29:09.808Z,94.82
2022-12-19T00:31:39.495Z,98.20
2022-12-19T00:34:06.315Z,106.25
2022-12-19T00:36:34.487Z,101.00
2022-12-19T00:39:08.501Z,110.85
2022-12-19T00:41:37.525Z,101.32
2022-12-19T00:44:14.035Z,101.22
2022-12-19T00:46:40.920Z,105.47
2022-12-19T00:49:07.798Z,98.50
2022-12-19T00:51:36.325Z,112.53
2022-12-19T00:54:05.307Z,107.03
2022-12-19T00:56:35.234Z,109.28
2022-12-19T00:59:05.123Z,106.05
2022-12-19T01:01:34.588Z,101.47
2022-12-19T01:04:28.082Z,96.78
2022-12-19T01:06:51.715Z,109.30
2022-12-19T01:09:18.623Z,109.18
2022-12-19T01:12:04.011Z,107.00
2022-12-19T01:14:30.683Z,116.60
2022-12-19T01:16:57.397Z,110.18
2022-12-19T01:19:26.378Z,104.22
2022-12-19T01:21:53.524Z,106.35
2022-12-19T01:24:20.413Z,107.28
2022-12-19T01:26:47.423Z,113.25
2022-12-19T01:29:14.231Z,124.47
2022-12-19T01:31:41.025Z,123.80
2022-12-19T01:34:07.953Z,130.55
2022-12-19T01:36:36.612Z,124.15
2022-12-19T01:39:07.354Z,134.70
2022-12-19T01:41:35.191Z,126.50
2022-12-19T01:44:07.244Z,132.30
2022-12-19T01:46:38.343Z,117.45
2022-12-19T01:49:09.900Z,133.25
2022-12-19T01:51:43.743Z,124.93
2022-12-19T01:54:13.876Z,124.15
2022-12-19T01:56:43.956Z,134.52
2022-12-19T01:59:16.252Z,135.40
2022-12-19T02:01:50.992Z,120.93
2022-12-19T02:04:27.092Z,128.68
2022-12-19T02:06:59.144Z,121.53
2022-12-19T02:09:31.451Z,121.75
2022-12-19T02:12:00.061Z,131.45
2022-12-19T02:14:27.132Z,139.27
2022-12-19T02:17:16.024Z,140.05
2022-12-19T02:20:04.495Z,137.35
2022-12-19T02:23:01.157Z,144.85
2022-12-19T02:25:36.875Z,145.07
2022-12-19T02:28:35.691Z,142.80
2022-12-19T02:31:17.522Z,126.53
2022-12-19T02:34:03.494Z,131.43
2022-12-19T02:36:42.021Z,145.40
2022-12-19T02:39:30.599Z,145.02
2022-12-19T02:42:02.784Z,144.18
2022-12-19T02:44:47.814Z,146.07
2022-12-19T02:47:15.471Z,140.57
2022-12-19T02:49:42.492Z,148.30
2022-12-19T02:52:20.194Z,147.45
2022-12-19T02:54:50.084Z,140.65
2022-12-19T02:57:31.026Z,156.00
2022-12-19T03:00:06.109Z,149.32
2022-12-19T03:03:01.530Z,154.45
2022-12-19T03:05:34.162Z,144.43
2022-12-19T03:08:13.568Z,145.35
2022-12-19T03:11:11.618Z,165.65
2022-12-19T03:13:51.716Z,161.43
2022-12-19T03:16:18.520Z,177.43
2022-12-19T03:18:45.909Z,169.68
2022-12-19T03:21:25.666Z,150.77
2022-12-19T03:23:54.977Z,150.10
2022-12-19T03:26:27.957Z,157.63
2022-12-19T03:29:16.690Z,155.30
2022-12-19T03:31:46.332Z,154.52
2022-12-19T03:34:21.714Z,155.80
2022-12-19T03:39:20.647Z,156.73
2022-12-19T03:42:08.160Z,147.05
2022-12-19T03:44:37.861Z,141.55
2022-12-19T03:47:13.630Z,168.40
2022-12-19T03:52:19.430Z,138.85
2022-12-19T03:54:52.565Z,151.88
2022-12-19T03:58:06.618Z,148.43
2022-12-19T04:00:37.201Z,149.18
2022-12-19T04:03:06.624Z,151.35
2022-12-19T04:05:34.596Z,155.60
2022-12-19T04:08:04.738Z,149.35
2022-12-19T04:10:38.411Z,146.15
2022-12-19T04:13:13.736Z,156.73
2022-12-19T04:15:58.809Z,163.38
2022-12-19T04:18:25.736Z,149.23
2022-12-19T04:21:01.334Z,153.27
2022-12-19T04:26:04.329Z,161.45
2022-12-19T04:28:37.327Z,135.20
2022-12-19T04:31:05.527Z,148.43
2022-12-19T04:33:32.321Z,132.88
2022-12-19T04:36:00.347Z,133.82
2022-12-19T04:38:27.245Z,131.50
2022-12-19T04:40:53.939Z,132.55
2022-12-19T04:43:20.805Z,126.38
2022-12-19T04:45:49.719Z,116.60
2022-12-19T04:48:19.483Z,118.45
2022-12-19T04:50:46.175Z,117.82
2022-12-19T04:53:12.982Z,109.15
2022-12-19T04:55:40.353Z,102.38
2022-12-19T04:58:07.915Z,104.47
2022-12-19T05:00:34.877Z,118.20
2022-12-19T05:03:01.870Z,129.93
2022-12-19T05:05:28.749Z,126.75
2022-12-19T05:07:56.043Z,109.65
2022-12-19T05:10:22.750Z,118.18
2022-12-19T05:12:49.447Z,110.93
2022-12-19T05:15:16.469Z,103.65
2022-12-19T05:17:43.160Z,110.88
2022-12-19T05:20:10.738Z,112.70
2022-12-19T05:22:37.510Z,117.07
2022-12-19T05:25:04.612Z,106.53
2022-12-19T05:27:31.432Z,104.07
2022-12-19T05:29:58.172Z,103.32
2022-12-19T05:32:24.927Z,122.32
2022-12-19T05:34:51.561Z,114.45
2022-12-19T05:37:18.361Z,107.25
2022-12-19T05:39:45.086Z,112.13
2022-12-19T05:42:12.633Z,106.80
2022-12-19T05:44:39.740Z,113.53
2022-12-19T05:47:06.564Z,97.95
2022-12-19T05:49:33.311Z,105.35
2022-12-19T05:52:00.073Z,97.65
2022-12-19T05:54:26.760Z,102.82
2022-12-19T05:56:53.429Z,96.57
2022-12-19T05:59:20.199Z,91.05
2022-12-19T06:01:47.050Z,82.00
2022-12-19T06:04:13.791Z,74.63
2022-12-19T06:06:40.616Z,73.57
2022-12-19T06:09:07.460Z,81.63
2022-12-19T06:11:34.258Z,81.00
2022-12-19T06:14:01.316Z,75.32
2022-12-19T06:16:28.148Z,82.05
2022-12-19T06:18:54.911Z,78.03
2022-12-19T06:21:23.391Z,76.32
2022-12-19T06:23:50.301Z,85.40
2022-12-19T06:26:20.417Z,80.45
2022-12-19T06:28:49.219Z,76.70
2022-12-19T06:31:17.165Z,76.78
2022-12-19T06:33:44.193Z,81.25
2022-12-19T06:36:21.292Z,78.75
2022-12-19T06:38:49.244Z,73.50
2022-12-19T06:41:35.056Z,68.03
2022-12-19T06:44:04.379Z,89.78
2022-12-19T06:46:32.111Z,76.75
2022-12-19T06:48:59.129Z,76.55
2022-12-19T06:51:25.900Z,70.80
2022-12-19T06:53:53.591Z,71.57
2022-12-19T06:56:20.432Z,67.20
2022-12-19T06:58:48.032Z,70.85
2022-12-19T07:01:57.337Z,70.70
2022-12-19T07:04:31.985Z,66.50
2022-12-19T07:06:59.415Z,70.93
2022-12-19T07:09:28.667Z,77.47
2022-12-19T07:11:55.349Z,70.18
2022-12-19T07:14:22.112Z,80.53
2022-12-19T07:16:51.444Z,68.72
2022-12-19T07:19:18.736Z,80.78
2022-12-19T07:21:45.814Z,70.22
2022-12-19T07:24:14.927Z,71.07
2022-12-19T07:26:43.374Z,73.82
2022-12-19T07:29:11.135Z,79.03
2022-12-19T07:31:38.863Z,71.30
2022-12-19T07:34:05.745Z,76.47
2022-12-19T07:36:32.609Z,71.90
2022-12-19T07:38:59.545Z,76.80
2022-12-19T07:41:26.365Z,79.25
2022-12-19T07:43:53.415Z,76.07
2022-12-19T07:46:20.844Z,79.80
2022-12-19T07:48:47.949Z,81.75
2022-12-19T07:51:14.738Z,86.75
2022-12-19T07:53:41.399Z,84.70
2022-12-19T07:56:08.513Z,77.45
2022-12-19T07:58:35.320Z,80.90
2022-12-19T08:01:02.436Z,80.40
2022-12-19T08:03:29.277Z,82.32
2022-12-19T08:06:07.182Z,71.68
2022-12-19T08:08:34.495Z,77.65
2022-12-19T08:11:22.294Z,77.13
2022-12-19T08:13:49.403Z,80.72
2022-12-19T08:16:16.317Z,79.03
2022-12-19T08:18:43.138Z,76.55
2022-12-19T08:21:10.473Z,74.40
2022-12-19T08:23:38.717Z,65.60
2022-12-19T08:26:11.787Z,73.80
2022-12-19T08:28:38.832Z,69.70
2022-12-19T08:31:11.273Z,65.40
2022-12-19T08:33:38.448Z,67.50
2022-12-19T08:36:13.726Z,69.78
2022-12-19T08:38:41.241Z,65.93
2022-12-19T08:41:08.623Z,73.28
2022-12-19T08:43:35.722Z,67.47
2022-12-19T08:46:02.649Z,63.22
2022-12-19T08:48:29.444Z,65.82
2022-12-19T08:51:08.394Z,64.93
2022-12-19T08:53:37.644Z,61.47
2022-12-19T08:56:20.840Z,61.97
2022-12-19T08:58:48.077Z,77.03
2022-12-19T09:01:20.008Z,63.58
2022-12-19T09:03:56.608Z,69.68
2022-12-19T09:06:34.857Z,67.55
2022-12-19T09:09:04.128Z,70.00
2022-12-19T09:11:31.337Z,63.45
2022-12-19T09:13:58.468Z,65.00
2022-12-19T09:16:27.731Z,64.50
2022-12-19T09:18:58.529Z,63.03
2022-12-19T09:21:27.698Z,65.35
2022-12-19T09:24:00.577Z,60.55
2022-12-19T09:26:33.776Z,57.72
2022-12-19T09:29:01.267Z,68.35
2022-12-19T09:31:29.225Z,67.88
2022-12-19T09:33:56.333Z,68.78
2022-12-19T09:36:25.113Z,65.35
2022-12-19T09:38:56.608Z,66.28
2022-12-19T09:41:44.798Z,66.10
2022-12-19T09:44:47.515Z,58.83
2022-12-19T09:47:16.709Z,60.85
2022-12-19T09:49:46.018Z,60.70
2022-12-19T09:52:15.696Z,54.65
2022-12-19T09:55:04.763Z,60.40
2022-12-19T09:58:04.719Z,58.90
2022-12-19T10:01:05.119Z,55.88
2022-12-19T10:03:40.882Z,66.55
2022-12-19T10:07:11.736Z,58.10
2022-12-19T10:11:46.895Z,56.90
2022-12-19T10:12:44.838Z,57.90
2022-12-19T10:15:26.278Z,62.42
2022-12-19T10:17:52.993Z,57.25
2022-12-19T10:20:26.314Z,63.35
2022-12-19T10:23:09.420Z,56.63
2022-12-19T10:25:54.294Z,60.28
2022-12-19T10:28:42.014Z,61.47
2022-12-19T10:31:19.120Z,61.03
2022-12-19T10:34:04.995Z,57.13
2022-12-19T10:37:12.353Z,55.67
2022-12-19T10:39:35.878Z,61.70
2022-12-19T10:42:17.650Z,53.47
2022-12-19T10:44:46.560Z,52.47
2022-12-19T10:47:17.443Z,60.58
2022-12-19T10:49:44.152Z,59.80
2022-12-19T10:52:12.843Z,55.80
2022-12-19T10:54:41.778Z,53.60
2022-12-19T10:57:29.433Z,54.63
2022-12-19T10:59:56.242Z,61.30
2022-12-19T11:02:38.417Z,61.72
2022-12-19T11:05:25.663Z,57.65
2022-12-19T11:08:21.198Z,53.65
2022-12-19T11:14:50.084Z,56.40
2022-12-19T11:20:22.565Z,57.28
2022-12-19T11:24:28.624Z,55.10
2022-12-19T11:29:40.836Z,65.90
2022-12-19T11:29:43.288Z,62.10
2022-12-19T11:30:43.940Z,61.78
2022-12-19T11:30:47.445Z,58.72
2022-12-19T11:34:06.723Z,61.50
2022-12-19T11:37:12.058Z,63.38
2022-12-19T11:39:57.840Z,64.63
2022-12-19T11:42:39.216Z,62.53
2022-12-19T11:45:20.693Z,60.42
2022-12-19T11:48:05.333Z,56.72
2022-12-19T11:50:54.335Z,61.03
2022-12-19T11:53:35.819Z,59.35
2022-12-19T11:56:15.805Z,58.47
2022-12-19T11:58:48.716Z,65.63
2022-12-19T12:01:38.373Z,58.00
2022-12-19T12:04:38.881Z,58.60
2022-12-19T12:07:19.227Z,59.83
2022-12-19T12:14:38.870Z,61.17
2022-12-19T12:23:53.831Z,63.47
2022-12-19T12:24:58.624Z,65.15
2022-12-19T12:31:13.967Z,68.13
2022-12-19T12:31:39.253Z,70.90
2022-12-19T12:31:42.781Z,69.65
2022-12-19T12:32:05.781Z,72.40
2022-12-19T12:35:30.231Z,72.00
2022-12-19T12:38:18.857Z,71.50
2022-12-19T12:41:03.196Z,72.45
2022-12-19T12:43:50.877Z,80.63
2022-12-19T12:46:23.505Z,76.72
2022-12-19T12:49:00.839Z,77.50
2022-12-19T12:51:28.276Z,79.88
2022-12-19T12:54:04.987Z,80.65
2022-12-19T12:56:32.563Z,89.50
2022-12-19T12:59:07.122Z,100.78
2022-12-19T13:01:41.334Z,96.88
2022-12-19T13:04:11.140Z,91.28
2022-12-19T13:06:49.473Z,96.63
2022-12-19T13:09:27.293Z,97.95
2022-12-19T13:12:38.697Z,107.00
2022-12-19T13:15:26.519Z,98.57
2022-12-19T13:17:53.346Z,103.45
2022-12-19T13:20:28.817Z,105.95
2022-12-19T13:22:58.568Z,107.00
2022-12-19T13:25:28.057Z,106.38
2022-12-19T13:28:01.353Z,100.25
2022-12-19T13:30:29.654Z,106.30
2022-12-19T13:32:56.406Z,108.00
2022-12-19T13:39:37.048Z,104.82
2022-12-19T13:39:59.626Z,101.68
2022-12-19T13:41:45.712Z,107.47
2022-12-19T13:44:12.726Z,107.97
2022-12-19T13:46:42.478Z,108.07
2022-12-19T13:49:30.530Z,103.38
2022-12-19T13:52:02.012Z,102.85
2022-12-19T13:54:34.729Z,115.18
2022-12-19T13:57:03.379Z,98.80
2022-12-19T13:59:38.916Z,97.57
2022-12-19T14:02:20.949Z,97.03
2022-12-19T14:04:48.104Z,101.38
2022-12-19T14:07:40.524Z,88.18
2022-12-19T14:11:41.539Z,101.65
2022-12-19T14:13:52.943Z,94.32
2022-12-19T14:16:34.726Z,91.43
2022-12-19T14:19:22.759Z,125.03
2022-12-19T14:22:04.564Z,92.97
2022-12-19T14:24:36.384Z,97.47
2022-12-19T14:28:17.609Z,99.85
2022-12-19T14:30:28.447Z,94.13
2022-12-19T14:33:44.716Z,88.00
2022-12-19T14:36:12.036Z,100.68
2022-12-19T14:39:20.921Z,96.38
2022-12-19T14:42:20.480Z,92.53
2022-12-19T14:52:27.891Z,89.45
2022-12-19T14:54:04.574Z,93.82
2022-12-19T14:54:14.086Z,86.53
2022-12-19T14:54:21.297Z,90.50
2022-12-19T14:59:02.294Z,90.32
2022-12-19T15:01:33.175Z,84.22
2022-12-19T15:04:51.141Z,89.60
2022-12-19T15:07:10.655Z,90.13
2022-12-19T15:11:05.666Z,87.47
2022-12-19T15:14:51.838Z,86.13
2022-12-19T15:15:51.412Z,82.43
2022-12-19T15:18:20.126Z,84.32
2022-12-19T15:20:47.009Z,84.78
2022-12-19T15:23:19.839Z,87.90
2022-12-19T15:26:06.116Z,82.88
2022-12-19T15:28:51.453Z,84.60
2022-12-19T15:31:35.398Z,91.00
2022-12-19T15:37:16.775Z,94.00
2022-12-19T15:39:44.947Z,91.88
2022-12-19T15:42:22.560Z,87.53
2022-12-19T15:44:50.980Z,91.53
2022-12-19T15:47:34.128Z,94.68
2022-12-19T15:50:02.649Z,88.55
2022-12-19T15:52:30.348Z,90.32
2022-12-19T15:54:57.469Z,90.22
2022-12-19T15:57:40.814Z,91.25
2022-12-19T16:00:23.109Z,89.40
2022-12-19T16:05:38.513Z,90.93
2022-12-19T16:08:17.178Z,96.47
2022-12-19T16:10:47.051Z,98.25
2022-12-19T16:13:20.797Z,97.88
2022-12-19T16:15:48.188Z,94.45
2022-12-19T16:18:15.869Z,99.35
2022-12-19T16:20:43.362Z,95.43
2022-12-19T16:23:11.499Z,95.13
2022-12-19T16:25:47.759Z,95.82
2022-12-19T16:28:26.833Z,90.85
2022-12-19T16:30:55.106Z,95.57
2022-12-19T16:33:24.697Z,95.07
2022-12-19T16:36:04.240Z,90.07
2022-12-19T16:38:33.238Z,92.50
2022-12-19T16:41:01.892Z,93.53
2022-12-19T16:43:36.785Z,89.82
2022-12-19T16:46:06.555Z,98.10
2022-12-19T16:48:35.899Z,96.40
2022-12-19T16:51:02.854Z,94.00
2022-12-19T16:53:29.854Z,101.75
2022-12-19T16:55:57.304Z,99.38
2022-12-19T16:58:27.366Z,110.40
2022-12-19T17:00:55.536Z,94.45
2022-12-19T17:03:32.160Z,95.05
2022-12-19T17:05:59.248Z,94.47
2022-12-19T17:08:26.254Z,101.82
2022-12-19T17:10:54.440Z,94.78
2022-12-19T17:13:22.525Z,102.55
2022-12-19T17:15:56.375Z,96.90
2022-12-19T17:18:24.104Z,102.07
2022-12-19T17:20:50.850Z,103.05
2022-12-19T17:23:22.741Z,95.00
2022-12-19T17:25:50.684Z,99.95
2022-12-19T17:28:18.085Z,99.63
2022-12-19T17:30:50.834Z,98.20
2022-12-19T17:33:19.172Z,90.03
2022-12-19T17:35:46.815Z,92.40
2022-12-19T17:38:15.265Z,95.05
2022-12-19T17:40:42.760Z,103.32
2022-12-19T17:43:12.003Z,97.65
2022-12-19T17:45:39.260Z,97.03
2022-12-19T17:48:14.379Z,98.45
2022-12-19T17:50:42.013Z,93.53
2022-12-19T17:53:14.012Z,97.10
2022-12-19T17:55:41.525Z,94.05
2022-12-19T17:58:12.350Z,103.47
2022-12-19T18:00:40.841Z,94.25
2022-12-19T18:03:18.882Z,94.63
2022-12-19T18:05:45.808Z,94.68
2022-12-19T18:08:29.191Z,95.65
2022-12-19T18:10:58.890Z,100.25
2022-12-19T18:13:26.703Z,97.95
2022-12-19T18:16:00.874Z,93.32
2022-12-19T18:18:30.953Z,99.47
2022-12-19T18:20:59.034Z,93.93
2022-12-19T18:23:26.625Z,95.60
2022-12-19T18:26:00.850Z,94.97
2022-12-19T18:28:28.320Z,98.25
2022-12-19T18:31:01.235Z,93.95
2022-12-19T18:33:31.120Z,90.78
2022-12-19T18:35:57.913Z,89.90
2022-12-19T18:38:24.655Z,92.65
2022-12-19T18:40:52.067Z,83.28
2022-12-19T18:43:19.469Z,94.57
2022-12-19T18:45:48.852Z,90.18
2022-12-19T18:48:33.519Z,94.70
2022-12-19T18:51:01.299Z,81.40
2022-12-19T18:53:36.342Z,90.95
2022-12-19T18:56:05.444Z,86.88
2022-12-19T18:58:33.306Z,85.90
2022-12-19T19:01:01.227Z,89.57
2022-12-19T19:03:31.228Z,88.22
2022-12-19T19:05:58.682Z,95.55
2022-12-19T19:08:28.352Z,95.57
2022-12-19T19:10:56.341Z,86.47
2022-12-19T19:13:25.444Z,84.57
2022-12-19T19:15:53.555Z,83.20
2022-12-19T19:18:24.323Z,87.90
2022-12-19T19:21:00.417Z,90.00
2022-12-19T19:23:33.265Z,83.90
2022-12-19T19:26:00.053Z,91.70
2022-12-19T19:28:26.873Z,83.78
2022-12-19T19:30:54.884Z,90.40
2022-12-19T19:33:27.303Z,94.43
2022-12-19T19:35:58.753Z,85.05
2022-12-19T19:38:25.666Z,92.30
2022-12-19T19:40:52.489Z,91.38
2022-12-19T19:43:19.367Z,84.05
2022-12-19T19:45:46.907Z,90.93
2022-12-19T19:48:13.842Z,82.05
2022-12-19T19:50:40.722Z,86.78
2022-12-19T19:53:07.574Z,86.00
2022-12-19T19:55:34.247Z,80.68
2022-12-19T19:58:01.221Z,78.97
2022-12-19T20:00:27.921Z,80.88
2022-12-19T20:02:54.763Z,81.70
2022-12-19T20:05:21.696Z,82.72
2022-12-19T20:07:48.349Z,78.35
2022-12-19T20:10:15.490Z,78.63
2022-12-19T20:12:42.335Z,81.03
2022-12-19T20:15:09.800Z,88.32
2022-12-19T20:17:36.651Z,78.20
2022-12-19T20:20:04.167Z,76.32
2022-12-19T20:22:30.882Z,82.85
2022-12-19T20:24:58.224Z,82.60
2022-12-19T20:27:25.104Z,81.47
2022-12-19T20:29:51.936Z,82.35
2022-12-19T20:32:18.688Z,81.13
2022-12-19T20:34:45.565Z,82.95
2022-12-19T20:37:12.613Z,73.15
2022-12-19T20:39:39.703Z,83.47
2022-12-19T20:42:06.629Z,81.22
2022-12-19T20:44:33.350Z,87.35
2022-12-19T20:47:00.309Z,88.10
2022-12-19T20:49:27.485Z,80.15
2022-12-19T20:51:54.413Z,88.50
2022-12-19T20:54:21.345Z,79.43
2022-12-19T20:56:48.257Z,74.65
2022-12-19T20:59:15.041Z,79.63
2022-12-19T21:01:41.994Z,80.47
2022-12-19T21:04:09.154Z,80.85
2022-12-19T21:06:37.944Z,74.22
2022-12-19T21:09:06.147Z,77.25
2022-12-19T21:11:35.554Z,79.78
2022-12-19T21:14:02.434Z,81.22
2022-12-19T21:16:29.316Z,82.85
2022-12-19T21:18:56.267Z,76.30
2022-12-19T21:21:25.994Z,76.47
2022-12-19T21:23:54.378Z,79.85
2022-12-19T21:26:23.020Z,84.45
2022-12-19T21:28:50.167Z,84.55
2022-12-19T21:31:23.905Z,77.82
2022-12-19T21:33:53.815Z,75.38
2022-12-19T21:36:23.613Z,76.40
2022-12-19T21:38:53.616Z,74.95
2022-12-19T21:41:21.382Z,71.38
2022-12-19T21:43:56.471Z,82.97
2022-12-19T21:46:28.332Z,76.50
2022-12-19T21:48:57.059Z,74.03
2022-12-19T21:51:26.601Z,85.40
2022-12-19T21:53:55.501Z,74.72
2022-12-19T21:56:28.868Z,76.10
2022-12-19T21:58:58.180Z,75.40
2022-12-19T22:01:25.680Z,77.40
2022-12-19T22:03:52.848Z,75.70
2022-12-19T22:06:27.877Z,74.72
2022-12-19T22:08:55.797Z,79.95
2022-12-19T22:11:23.139Z,73.55
2022-12-19T22:13:50.435Z,74.25
2022-12-19T22:16:17.780Z,79.80
2022-12-19T22:18:45.277Z,72.35
2022-12-19T22:21:14.217Z,77.45
2022-12-19T22:23:41.901Z,79.22
2022-12-19T22:26:14.757Z,75.50
2022-12-19T22:28:43.965Z,70.95
2022-12-19T22:31:21.200Z,71.88
2022-12-19T22:33:50.513Z,77.18
2022-12-19T22:36:23.994Z,75.03
2022-12-19T22:38:54.682Z,74.93
2022-12-19T22:41:22.139Z,75.93
2022-12-19T22:43:49.287Z,82.10
2022-12-19T22:46:19.136Z,76.32
2022-12-19T22:48:47.476Z,80.65
2022-12-19T22:51:15.402Z,87.97
2022-12-19T22:53:42.800Z,70.88
2022-12-19T22:56:15.408Z,82.25
2022-12-19T22:58:44.881Z,71.60
2022-12-19T23:01:23.552Z,70.28
2022-12-19T23:03:52.727Z,76.40
2022-12-19T23:06:20.984Z,76.85
2022-12-19T23:08:47.811Z,75.60
2022-12-19T23:11:17.736Z,71.93
2022-12-19T23:13:46.320Z,72.57
2022-12-19T23:16:13.731Z,73.22
2022-12-19T23:18:41.412Z,77.68
2022-12-19T23:21:11.776Z,75.78
2022-12-19T23:23:40.389Z,77.38
2022-12-19T23:26:15.889Z,79.28
2022-12-19T23:28:44.756Z,74.05
2022-12-19T23:31:13.913Z,76.00
2022-12-19T23:33:40.668Z,73.82
2022-12-19T23:36:08.034Z,75.70
2022-12-19T23:38:34.887Z,75.05
2022-12-19T23:41:07.330Z,75.93
2022-12-19T23:43:36.188Z,71.03
2022-12-19T23:46:13.552Z,71.10
2022-12-19T23:48:40.526Z,71.25
2022-12-19T23:51:12.260Z,71.35
2022-12-19T23:53:39.367Z,73.00
2022-12-19T23:56:20.696Z,66.97
2022-12-19T23:58:47.620Z,65.32
